Osceola, IA

10:51 AM CDT on October 02, 2014 (GMT -0500)
Osceola Municipal | Change Station
CLOSE
Current Station
Airport
Location: Osceola Municipal,
Elevation: 1109 ft
Nearby Weather Stations

Elev 1109 ft 41.05 °N, 93.69 °W | Updated 16 minutes ago

Thunderstorm
Thunderstorm
65 °F
Feels Like 65 °F
N
8
Wind Variable Wind from SE

Today
High -- | Low -- °F
--% Chance of Precip.
Yesterday
High -- | Low -- °F
Precip. -- in
7:12 AM 6:55 PM
First Quarter, 60% visible
Pressure 29.75 in
Visibility 4.0 miles
Clouds Mostly Cloudy 800 ft
Overcast 1300 ft
Dew Point 64 °F
Humidity 97%
Rainfall 0.35 in
Snow Depth Not available.
UV 1 out of 12
Pollen .50 out of 12
Air Quality Not available.
Flu Activity Not available.
METAR KI75 021535Z AUTO 13007KT 4SM RA BKN008 OVC013 18/18 A2975 RMK AO2 P0001 T01820177

More Conditions Fewer Conditions

Pressure 29.75 in
Visibility 4.0 miles
Clouds Mostly Cloudy 800 ft
Overcast 1300 ft
Dew Point 64 °F
Humidity 97%
Rainfall 0.35 in
Snow Depth Not available.
UV 1 out of 12
Pollen .50 out of 12
Air Quality Not available.
Flu Activity Not available.
METAR KI75 021535Z AUTO 13007KT 4SM RA BKN008 OVC013 18/18 A2975 RMK AO2 P0001 T01820177

More Conditions Fewer Conditions

10-Day Weather Forecast

Almanac

Astronomy

Oct. 02, 2014 Rise Set
Actual Time 7:12 AM CDT 6:55 PM CDT
Civil Twilight 6:45 AM CDT 7:22 PM CDT
Nautical Twilight 6:13 AM CDT 7:54 PM CDT
Astronomical Twilight 5:41 AM CDT 8:26 PM CDT
Moon 3:04 PM CDT 12:27 AM CDT
Length of Visible Light 12h 37m
Length of Day
11h 42m
Tomorrow will be 2m 41s shorter.
First Quarter, 60% of the Moon is Illuminated
Today
First Quarter
Oct 8
Full
Oct 15
Last Quarter
Oct 23
New
Oct 30
First Quarter

Today's Extremes

State Highs State Lows

Community

WunderPhotos

Upload Photos

1,758,276 photos uploaded!

WunderBlogs® & News

Nearby

Snow Depth

Station Depth Elevation
No new snow has been reported.

Earthquake Activity

City Distance Mag. Time & Date
No recent earthquake activity has been reported nearby.
Minimum magnitude displayed is 2.5.

Coastal Water Temperatures

Place Temperature
No Stations Reporting

Nearby Weather Stations